Time;durP1;ratioP1;P1;durP2;ratioP2;P2;SDS_P1;SDS_P2;PMS_P1;PMS_P2;Temp;Humidity;BMP_temperature;BMP_pressure;BME280_temperature;BME280_humidity;BME280_pressure;Samples;Min_cycle;Max_cycle;Signal;HPM_P1;HPM_P2
2022/06/02 00:01:59;;;;;;;6.55;3.85;;;;;;;18.85;67.78;95059.97;5060250;28;20275;-74
2022/06/02 00:04:36;;;;;;;5.18;3.88;;;;;;;18.84;68.06;95058.34;5076674;28;20217;-74
2022/06/02 00:07:07;;;;;;;5.38;3.85;;;;;;;18.83;68.21;95051.97;5076376;28;20280;-74
2022/06/02 00:09:51;;;;;;;5.65;4.32;;;;;;;18.88;68.19;95062.75;5075306;28;20201;-74
2022/06/02 00:12:24;;;;;;;5.90;4.03;;;;;;;18.86;67.88;95055.97;5075914;28;20597;-74
2022/06/02 00:14:54;;;;;;;5.60;3.92;;;;;;;18.84;68.26;95053.56;5075887;28;20193;-74
2022/06/02 00:17:28;;;;;;;4.38;3.97;;;;;;;18.79;68.55;95054.00;5075076;28;20652;-74
2022/06/02 00:19:59;;;;;;;4.32;3.92;;;;;;;18.72;68.34;95054.03;5075086;28;20193;-74
2022/06/02 00:22:32;;;;;;;5.15;4.25;;;;;;;18.68;68.46;95054.00;5074897;28;20297;-74
2022/06/02 00:25:04;;;;;;;6.25;4.25;;;;;;;18.64;68.69;95061.63;5075196;28;20258;-74
2022/06/02 00:27:35;;;;;;;6.00;4.40;;;;;;;18.62;68.78;95054.84;5075071;28;20189;-74
2022/06/02 00:30:07;;;;;;;6.00;3.95;;;;;;;18.61;68.77;95056.03;5075319;28;20186;-74
2022/06/02 00:32:41;;;;;;;4.93;4.22;;;;;;;18.56;68.89;95056.47;5075052;28;20189;-74
2022/06/02 00:35:16;;;;;;;5.22;4.13;;;;;;;18.53;68.96;95061.66;5074931;28;20189;-74
2022/06/02 00:37:49;;;;;;;6.47;4.07;;;;;;;18.58;68.97;95056.84;5074781;28;20216;-74
2022/06/02 00:40:22;;;;;;;4.72;4.28;;;;;;;18.56;69.23;95053.69;5075336;28;20189;-74
2022/06/02 00:43:03;;;;;;;5.38;4.50;;;;;;;18.55;69.60;95061.22;5075611;28;20189;-74
2022/06/02 00:45:30;;;;;;;5.38;4.13;;;;;;;18.57;68.83;95067.22;5075370;28;20254;-73
2022/06/02 00:48:09;;;;;;;5.05;4.07;;;;;;;18.55;69.02;95061.22;5074692;28;20193;-73
2022/06/02 00:50:45;;;;;;;4.90;4.40;;;;;;;18.55;69.33;95061.22;5075592;28;20192;-73
2022/06/02 00:53:15;;;;;;;5.57;4.05;;;;;;;18.53;69.32;95052.47;5075468;28;20182;-73
2022/06/02 00:58:51;;;;;;;6.38;4.18;;;;;;;18.49;69.10;95060.88;5075016;28;20664;-74
2022/06/02 01:01:23;;;;;;;5.18;3.90;;;;;;;18.49;69.56;95055.28;5075385;28;20189;-74
2022/06/02 01:03:50;;;;;;;4.97;4.47;;;;;;;18.50;69.71;95058.88;5075435;28;20181;-75
2022/06/02 01:06:30;;;;;;;6.22;5.07;;;;;;;18.50;69.79;95065.25;5057579;28;20205;-74
2022/06/02 01:09:13;;;;;;;5.88;4.65;;;;;;;18.51;69.82;95052.88;5075393;28;20185;-74
2022/06/02 01:11:47;;;;;;;5.82;4.68;;;;;;;18.53;69.73;95060.88;5074365;28;20208;-74
2022/06/02 01:14:31;;;;;;;5.40;4.90;;;;;;;18.54;69.47;95054.06;5075281;28;20180;-74
2022/06/02 01:17:03;;;;;;;6.68;4.65;;;;;;;18.54;69.40;95056.84;5075222;28;20204;-74
2022/06/02 01:19:56;;;;;;;7.45;4.82;;;;;;;18.46;69.57;95056.09;5074904;28;20185;-74
2022/06/02 01:22:38;;;;;;;7.45;5.10;;;;;;;18.39;69.71;95055.31;5071943;28;20232;-74
2022/06/02 01:25:29;;;;;;;6.93;4.40;;;;;;;18.37;69.62;95057.72;5074331;28;20197;-74
2022/06/02 01:28:12;;;;;;;5.10;4.60;;;;;;;18.35;69.63;95060.13;5068227;28;20599;-74
2022/06/02 01:30:48;;;;;;;4.88;4.30;;;;;;;18.34;70.05;95056.53;5074203;28;20201;-74
2022/06/02 01:33:19;;;;;;;5.13;4.63;;;;;;;18.37;69.67;95055.72;5074422;28;20290;-74
2022/06/02 01:35:52;;;;;;;4.97;4.50;;;;;;;18.39;69.41;95058.91;5074189;28;20189;-74
2022/06/02 01:38:24;;;;;;;5.70;4.63;;;;;;;18.37;69.18;95055.72;5074093;28;20216;-74
2022/06/02 01:40:57;;;;;;;5.85;4.43;;;;;;;18.34;69.59;95061.31;5075113;28;20189;-74
2022/06/02 01:43:29;;;;;;;5.82;4.63;;;;;;;18.31;69.78;95057.34;5074054;28;20205;-74
2022/06/02 01:46:20;;;;;;;5.55;4.70;;;;;;;18.21;70.19;95055.38;5074075;28;20200;-74
2022/06/02 01:48:51;;;;;;;5.38;4.75;;;;;;;18.19;70.32;95058.56;5074908;28;20205;-74
2022/06/02 01:51:23;;;;;;;6.20;4.80;;;;;;;18.16;70.09;95053.00;5074057;28;20197;-74
2022/06/02 01:53:57;;;;;;;5.80;4.80;;;;;;;18.17;70.32;95060.97;5074852;28;20200;-74
2022/06/02 01:56:50;;;;;;;6.10;4.80;;;;;;;18.18;70.33;95058.97;5076311;28;20250;-74
2022/06/02 01:59:25;;;;;;;5.75;4.97;;;;;;;18.18;69.83;95056.97;5068932;28;20323;-74
2022/06/02 02:02:00;;;;;;;6.00;4.43;;;;;;;18.16;70.15;95050.22;5077818;28;20185;-75
2022/06/02 02:04:46;;;;;;;6.95;5.00;;;;;;;18.14;70.16;95047.81;5078712;28;20253;-74
2022/06/02 02:07:19;;;;;;;5.07;4.68;;;;;;;18.10;70.32;95052.59;5078658;28;20181;-75
2022/06/02 02:09:56;;;;;;;5.07;4.65;;;;;;;18.07;70.24;95047.03;5078534;28;20284;-75
2022/06/02 02:12:39;;;;;;;6.53;5.53;;;;;;;18.00;70.21;95045.84;5078532;28;20189;-75
2022/06/02 02:15:17;;;;;;;5.53;5.03;;;;;;;17.92;70.30;95049.84;5077587;28;20197;-75
2022/06/02 02:18:05;;;;;;;7.32;4.65;;;;;;;17.88;69.94;95045.47;5078390;28;20282;-74
2022/06/02 02:20:39;;;;;;;6.22;4.72;;;;;;;17.78;69.77;95052.66;5077624;28;20200;-74
2022/06/02 02:23:08;;;;;;;7.70;4.85;;;;;;;17.70;70.06;95049.03;5077284;28;20236;-74
2022/06/02 02:25:41;;;;;;;6.60;5.28;;;;;;;17.64;70.07;95055.41;5078103;28;20197;-74
2022/06/02 02:28:16;;;;;;;7.00;5.15;;;;;;;17.63;70.45;95051.81;5077434;28;20497;-74
2022/06/02 02:30:52;;;;;;;6.93;4.80;;;;;;;17.68;70.47;95057.00;5077040;28;20620;-74
2022/06/02 02:33:27;;;;;;;7.43;4.82;;;;;;;17.68;70.33;95054.19;5060602;28;20208;-74
2022/06/02 02:36:01;;;;;;;5.35;4.90;;;;;;;17.69;70.80;95047.44;5077554;28;20197;-74
2022/06/02 02:38:34;;;;;;;5.30;4.78;;;;;;;17.73;71.09;95058.59;5077271;28;20213;-74
2022/06/02 02:41:04;;;;;;;5.53;5.03;;;;;;;17.76;70.68;95055.06;5076797;28;20617;-74
2022/06/02 02:43:35;;;;;;;6.78;4.85;;;;;;;17.75;70.64;95048.66;5077483;28;20599;-74
2022/06/02 02:46:06;;;;;;;8.45;5.40;;;;;;;17.75;70.58;95048.66;5077616;28;20177;-76
2022/06/02 02:48:38;;;;;;;6.20;5.25;;;;;;;17.72;70.69;95049.44;5077257;28;20189;-76
2022/06/02 02:51:10;;;;;;;6.75;5.10;;;;;;;17.71;70.65;95053.41;5076829;28;20205;-76
2022/06/02 02:53:42;;;;;;;7.95;5.45;;;;;;;17.71;70.44;95055.41;5076889;28;20505;-76
2022/06/02 02:56:15;;;;;;;5.10;4.60;;;;;;;17.70;70.33;95053.81;5077849;28;20185;-76
2022/06/02 02:58:44;;;;;;;6.60;5.00;;;;;;;17.71;70.23;95049.81;5076780;28;20231;-76
2022/06/02 03:01:15;;;;;;;6.13;4.93;;;;;;;17.68;70.13;95053.41;5077677;28;20200;-76
2022/06/02 03:03:47;;;;;;;7.70;5.30;;;;;;;17.66;70.12;95050.25;5077034;28;20196;-75
2022/06/02 03:06:23;;;;;;;6.03;5.10;;;;;;;17.67;69.93;95060.19;5077246;28;20188;-75
2022/06/02 03:08:55;;;;;;;5.10;4.70;;;;;;;17.65;69.68;95057.81;5076661;28;20201;-75
2022/06/02 03:11:40;;;;;;;5.22;4.72;;;;;;;17.66;70.11;95069.75;5076418;28;20205;-75
2022/06/02 03:14:19;;;;;;;7.05;5.03;;;;;;;17.66;69.87;95075.34;5076779;28;20189;-74
2022/06/02 03:16:51;;;;;;;5.63;4.63;;;;;;;17.64;69.87;95078.50;5076473;28;20684;-74
2022/06/02 03:19:24;;;;;;;6.68;5.20;;;;;;;17.64;69.86;95078.50;5076363;28;20213;-75
2022/06/02 03:21:55;;;;;;;6.13;5.10;;;;;;;17.63;69.72;95078.91;5076815;28;20605;-75
2022/06/02 03:24:52;;;;;;;4.78;4.20;;;;;;;17.60;70.00;95074.13;5077480;28;20193;-73
2022/06/02 03:27:28;;;;;;;5.05;4.60;;;;;;;17.55;70.17;95075.34;5077160;28;20200;-73
2022/06/02 03:30:10;;;;;;;6.22;4.45;;;;;;;17.55;70.45;95078.13;5077210;28;20193;-74
2022/06/02 03:32:53;;;;;;;6.18;4.45;;;;;;;17.53;70.43;95077.72;5076756;28;20258;-73
2022/06/02 03:35:27;;;;;;;4.85;4.40;;;;;;;17.53;70.71;95081.28;5075746;28;20246;-73
2022/06/02 03:38:12;;;;;;;5.25;4.40;;;;;;;17.57;71.04;95078.50;5076014;28;20204;-74
2022/06/02 03:41:00;;;;;;;5.57;5.05;;;;;;;17.56;71.05;95082.50;5075780;28;20193;-74
2022/06/02 03:43:31;;;;;;;5.88;4.80;;;;;;;17.55;70.85;95080.91;5075916;28;20216;-75
2022/06/02 03:46:13;;;;;;;7.53;5.13;;;;;;;17.58;70.74;95070.97;5076175;28;20186;-75
2022/06/02 03:49:00;;;;;;;5.70;5.10;;;;;;;17.63;70.71;95073.34;5076041;28;20200;-74
2022/06/02 03:51:36;;;;;;;6.30;4.80;;;;;;;17.61;70.75;95070.97;5077256;28;20189;-72
2022/06/02 03:54:31;;;;;;;5.95;5.22;;;;;;;17.60;70.86;95063.78;5076585;28;20189;-71
2022/06/02 03:57:09;;;;;;;6.57;4.90;;;;;;;17.61;70.99;95059.00;5069408;28;20732;-71
2022/06/02 04:00:14;;;;;;;7.38;5.05;;;;;;;17.65;70.81;95057.03;5076472;28;20231;-71
2022/06/02 04:02:43;;;;;;;5.95;4.97;;;;;;;17.70;70.69;95056.59;5067346;28;20212;-73
2022/06/02 04:05:41;;;;;;;5.72;5.20;;;;;;;17.70;70.69;95051.81;5076456;28;20185;-73
2022/06/02 04:08:36;;;;;;;7.68;5.47;;;;;;;17.72;70.62;95052.22;5075450;28;20196;-73
2022/06/02 04:11:15;;;;;;;8.45;5.55;;;;;;;17.75;71.19;95053.41;5075543;28;20208;-73
2022/06/02 04:13:48;;;;;;;6.88;5.90;;;;;;;17.75;70.61;95054.22;5076215;28;20200;-73
2022/06/02 04:16:37;;;;;;;6.07;5.20;;;;;;;17.75;70.96;95051.44;5075532;28;20200;-73
2022/06/02 04:22:17;;;;;;;6.55;5.72;;;;;;;17.72;71.62;95057.81;5075228;28;20236;-73
2022/06/02 04:24:52;;;;;;;6.35;5.75;;;;;;;17.72;72.13;95057.81;5076052;28;20267;-73
2022/06/02 04:27:25;;;;;;;8.85;6.05;;;;;;;17.78;72.19;95064.59;5075178;28;20193;-73
2022/06/02 04:30:00;;;;;;;6.20;5.50;;;;;;;17.84;72.30;95064.22;5075604;28;20193;-74
2022/06/02 04:32:35;;;;;;;8.73;5.88;;;;;;;17.81;72.27;95068.59;5075869;28;20253;-74
2022/06/02 04:35:08;;;;;;;7.53;5.95;;;;;;;17.84;72.50;95069.78;5074828;28;20524;-74
2022/06/02 04:37:40;;;;;;;7.90;6.10;;;;;;;17.92;72.17;95072.16;5074875;28;20241;-73
2022/06/02 04:40:18;;;;;;;8.02;6.15;;;;;;;17.99;71.96;95080.53;5074689;28;20278;-74
2022/06/02 04:42:51;;;;;;;7.20;6.20;;;;;;;18.01;72.31;95083.72;5075417;28;20189;-73
2022/06/02 04:45:24;;;;;;;8.55;6.80;;;;;;;18.02;72.09;95081.72;5075619;28;20203;-74
2022/06/02 04:47:59;;;;;;;7.90;6.80;;;;;;;18.06;71.79;95087.31;5074717;28;20209;-74
2022/06/02 04:50:31;;;;;;;8.05;6.57;;;;;;;18.06;72.49;95095.69;5074535;28;20265;-73
2022/06/02 04:53:11;;;;;;;7.43;6.63;;;;;;;18.04;72.52;95096.84;5074645;28;20640;-73
2022/06/02 04:55:49;;;;;;;8.43;7.47;;;;;;;18.06;71.96;95095.69;5075559;28;20193;-73
2022/06/02 04:58:22;;;;;;;9.98;7.45;;;;;;;18.09;72.14;95094.88;5075403;28;20242;-73
2022/06/02 05:00:55;;;;;;;8.45;7.63;;;;;;;18.14;72.38;95095.25;5074715;28;20218;-73
2022/06/02 05:03:30;;;;;;;8.00;7.20;;;;;;;18.11;72.44;95092.47;5074447;28;20250;-73
2022/06/02 05:06:04;;;;;;;8.98;7.18;;;;;;;18.12;73.10;95097.66;5075530;28;20211;-73
2022/06/02 05:08:46;;;;;;;8.45;6.65;;;;;;;18.18;72.96;95098.03;5075113;28;20173;-74
2022/06/02 05:11:26;;;;;;;6.80;6.18;;;;;;;18.22;72.84;95084.88;5074310;28;20271;-74
2022/06/02 05:13:59;;;;;;;6.65;5.57;;;;;;;18.25;72.38;95084.06;5075296;28;20272;-73
2022/06/02 05:16:32;;;;;;;7.35;5.80;;;;;;;18.28;71.95;95083.28;5074942;28;20181;-72
2022/06/02 05:19:25;;;;;;;6.15;5.53;;;;;;;18.30;72.50;95080.88;5074403;28;20224;-73
2022/06/02 05:22:22;;;;;;;7.88;6.10;;;;;;;18.32;72.51;95075.69;5075028;28;20209;-74
2022/06/02 05:25:06;;;;;;;7.65;6.03;;;;;;;18.35;72.16;95072.09;5075213;28;20246;-73
2022/06/02 05:28:15;;;;;;;7.88;6.03;;;;;;;18.40;72.09;95082.81;5074906;28;20193;-73
2022/06/02 05:31:11;;;;;;;8.05;6.10;;;;;;;18.48;72.46;95078.00;5058701;28;20200;-73
2022/06/02 05:34:20;;;;;;;7.32;5.97;;;;;;;18.53;72.47;95077.63;5081790;28;20188;-73
2022/06/02 05:37:13;;;;;;;6.57;5.85;;;;;;;18.57;72.31;95083.97;5081822;28;20189;-73
2022/06/02 05:39:52;;;;;;;8.95;5.82;;;;;;;18.62;72.47;95074.38;5081395;28;20205;-73
2022/06/02 05:42:28;;;;;;;5.97;5.30;;;;;;;18.68;72.36;95081.94;5080851;28;20192;-73
2022/06/02 05:45:05;;;;;;;7.25;5.60;;;;;;;18.69;72.66;95077.16;5081602;28;20196;-74
2022/06/02 05:47:42;;;;;;;6.07;5.47;;;;;;;18.74;72.53;95085.16;5080640;28;20517;-73
2022/06/02 05:50:20;;;;;;;6.32;5.57;;;;;;;18.80;72.03;95079.94;5081376;28;20181;-73
2022/06/02 05:52:56;;;;;;;6.00;5.22;;;;;;;18.88;72.14;95082.31;5080850;28;20201;-74
2022/06/02 05:55:31;;;;;;;7.22;6.05;;;;;;;18.94;72.04;95082.66;5081487;28;20218;-73
2022/06/02 05:58:06;;;;;;;8.15;5.63;;;;;;;18.97;71.52;95085.44;5080957;28;20235;-73
2022/06/02 06:00:40;;;;;;;8.20;6.43;;;;;;;18.98;71.16;95087.03;5080891;28;20273;-73
2022/06/02 06:03:17;;;;;;;7.93;6.30;;;;;;;19.00;70.62;95092.22;5080687;28;20262;-73
2022/06/02 06:05:47;;;;;;;6.22;5.63;;;;;;;19.00;70.38;95090.22;5081485;28;20193;-73
2022/06/02 06:08:25;;;;;;;6.22;5.72;;;;;;;19.04;70.28;95086.63;5080528;28;20274;-73
2022/06/02 06:10:57;;;;;;;7.07;5.57;;;;;;;19.05;70.42;95085.41;5080759;28;20209;-73
2022/06/02 06:13:45;;;;;;;7.90;6.00;;;;;;;19.08;70.34;95087.38;5081258;28;20193;-73
2022/06/02 06:16:18;;;;;;;8.65;6.47;;;;;;;19.13;69.63;95081.34;5080825;28;20197;-73
2022/06/02 06:19:02;;;;;;;7.60;6.75;;;;;;;19.18;69.82;95095.72;5081281;28;20201;-73
2022/06/02 06:21:39;;;;;;;8.02;7.28;;;;;;;19.21;69.37;95083.72;5080280;28;20623;-73
2022/06/02 06:24:16;;;;;;;8.00;7.20;;;;;;;19.22;69.51;95090.91;5080174;28;20235;-73
2022/06/02 06:26:50;;;;;;;10.30;7.60;;;;;;;19.23;69.69;95091.69;5081318;28;20219;-73
2022/06/02 06:29:55;;;;;;;9.68;7.65;;;;;;;19.28;69.60;95090.47;5080306;28;20200;-74
2022/06/02 06:32:33;;;;;;;9.50;8.32;;;;;;;19.31;69.36;95090.44;5068238;28;20619;-73
2022/06/02 06:35:12;;;;;;;11.50;8.82;;;;;;;19.37;68.76;95088.03;5080450;28;20196;-73
2022/06/02 06:37:51;;;;;;;10.90;8.77;;;;;;;19.39;68.64;95080.81;5081183;28;20200;-73
2022/06/02 06:40:33;;;;;;;9.75;8.55;;;;;;;19.42;68.81;95081.97;5080741;28;20652;-73
2022/06/02 06:43:08;;;;;;;11.88;9.18;;;;;;;19.46;68.96;95077.97;5077488;28;20258;-73
2022/06/02 06:45:37;;;;;;;12.38;9.02;;;;;;;19.52;68.79;95085.91;5076663;28;20189;-73
2022/06/02 06:48:08;;;;;;;11.77;9.68;;;;;;;19.55;68.44;95087.91;5077630;28;20597;-73
2022/06/02 06:50:43;;;;;;;11.02;8.95;;;;;;;19.60;68.07;95087.44;5077007;28;20196;-73
2022/06/02 06:53:19;;;;;;;10.45;9.02;;;;;;;19.63;68.29;95095.84;5077819;28;20276;-73
2022/06/02 06:56:00;;;;;;;12.48;8.77;;;;;;;19.64;68.33;95082.66;5077046;28;20201;-73
2022/06/02 06:58:39;;;;;;;9.70;8.57;;;;;;;19.65;67.79;95081.47;5077725;28;20204;-73
2022/06/02 07:01:10;;;;;;;9.50;8.50;;;;;;;19.68;67.19;95084.25;5077651;28;20193;-73
2022/06/02 07:03:43;;;;;;;9.13;8.23;;;;;;;19.73;67.28;95074.59;5077585;28;20217;-73
2022/06/02 07:06:15;;;;;;;9.35;8.50;;;;;;;19.81;67.17;95078.94;5077559;28;20185;-73
2022/06/02 07:08:49;;;;;;;9.75;8.77;;;;;;;19.86;67.24;95084.09;5077352;28;20205;-73
2022/06/02 07:14:11;;;;;;;11.63;8.43;;;;;;;19.93;65.90;95075.63;5077093;28;20264;-73
2022/06/02 07:16:42;;;;;;;10.27;7.63;;;;;;;19.95;65.56;95078.81;5076216;28;20200;-73
2022/06/02 07:19:13;;;;;;;8.85;7.75;;;;;;;19.98;65.96;95080.00;5077242;28;20212;-73
2022/06/02 07:21:48;;;;;;;10.57;8.05;;;;;;;20.00;65.97;95082.34;5076306;28;20212;-73
2022/06/02 07:24:19;;;;;;;11.82;8.25;;;;;;;20.03;66.02;95084.34;5076746;28;20232;-73
2022/06/02 07:26:57;;;;;;;11.13;8.07;;;;;;;20.06;66.02;95077.91;5076843;28;20173;-73
2022/06/02 07:29:36;;;;;;;10.35;8.23;;;;;;;20.18;66.46;95083.78;5075800;28;20189;-73
2022/06/02 07:32:23;;;;;;;9.18;7.90;;;;;;;20.24;65.76;95086.16;5076312;28;20604;-74
2022/06/02 07:35:27;;;;;;;11.13;8.40;;;;;;;20.25;65.52;95077.31;5076117;28;20208;-73
2022/06/02 07:38:00;;;;;;;8.63;7.75;;;;;;;20.33;65.39;95080.84;5034931;28;20299;-73
2022/06/02 07:40:43;;;;;;;10.98;8.23;;;;;;;20.37;64.96;95082.41;5076513;28;20205;-73
2022/06/02 07:43:43;;;;;;;12.38;9.05;;;;;;;20.48;64.67;95081.47;5076830;28;20190;-73
2022/06/02 07:46:20;;;;;;;9.40;7.93;;;;;;;20.51;64.62;95083.47;5063354;28;20221;-73
2022/06/02 07:48:58;;;;;;;11.23;8.30;;;;;;;20.53;64.64;95084.66;5076947;28;20189;-73
2022/06/02 07:51:29;;;;;;;12.18;8.65;;;;;;;20.56;63.80;95083.84;5075913;28;20197;-73
2022/06/02 07:54:23;;;;;;;9.15;7.90;;;;;;;20.59;63.57;95077.41;5075342;28;20184;-73
2022/06/02 07:56:58;;;;;;;10.30;8.15;;;;;;;20.61;63.41;95083.38;5076806;28;20189;-73
2022/06/02 07:59:38;;;;;;;8.75;7.55;;;;;;;20.66;63.47;95084.91;5076597;28;20200;-73
2022/06/02 08:02:20;;;;;;;11.15;7.88;;;;;;;20.72;63.79;95088.06;5075986;28;20591;-74
2022/06/02 08:04:51;;;;;;;9.15;7.35;;;;;;;20.85;63.45;95080.69;5076485;28;20258;-74
2022/06/02 08:07:25;;;;;;;8.07;7.25;;;;;;;20.91;63.13;95084.59;5076056;28;20182;-73
2022/06/02 08:10:14;;;;;;;10.70;7.97;;;;;;;20.94;62.73;95077.38;5075343;28;20258;-73
2022/06/02 08:12:45;;;;;;;9.07;6.43;;;;;;;21.03;62.20;95080.47;5076001;28;20243;-73
2022/06/02 08:15:30;;;;;;;7.68;6.88;;;;;;;21.11;61.04;95082.75;5075352;28;20593;-73
2022/06/02 08:17:58;;;;;;;8.75;6.15;;;;;;;21.28;60.96;95085.72;5075829;28;20193;-75
2022/06/02 08:20:47;;;;;;;6.68;6.03;;;;;;;21.43;59.98;95078.75;5074721;28;20270;-74
2022/06/02 08:23:42;;;;;;;7.45;5.60;;;;;;;21.57;58.62;95074.94;5075682;28;20245;-73
2022/06/02 08:26:13;;;;;;;7.82;5.82;;;;;;;21.71;60.40;95077.50;5075048;28;20254;-73
2022/06/02 08:29:02;;;;;;;7.00;6.25;;;;;;;21.76;59.78;95076.25;5075213;28;20254;-73
2022/06/02 08:31:48;;;;;;;6.97;6.07;;;;;;;21.84;59.95;95080.53;5075882;28;20192;-73
2022/06/02 08:34:16;;;;;;;9.75;7.15;;;;;;;21.87;57.98;95076.88;5074952;28;20208;-73
2022/06/02 08:36:50;;;;;;;8.40;7.57;;;;;;;21.85;59.08;95080.06;5058186;28;20239;-73
2022/06/02 08:39:34;;;;;;;8.55;7.10;;;;;;;22.00;59.83;95079.84;5074766;28;20201;-73
2022/06/02 08:42:13;;;;;;;8.77;6.65;;;;;;;22.19;59.60;95070.72;5075381;28;20617;-73
2022/06/02 08:45:13;;;;;;;7.57;5.80;;;;;;;22.47;57.50;95069.41;5074855;28;20201;-73
2022/06/02 08:48:14;;;;;;;6.90;6.00;;;;;;;22.63;58.27;95068.72;5074715;28;20201;-74
2022/06/02 08:51:28;;;;;;;10.45;7.35;;;;;;;22.70;57.94;95070.59;5074713;28;20193;-74
2022/06/02 08:54:24;;;;;;;7.90;7.10;;;;;;;22.67;58.06;95065.84;5075758;28;20185;-73
2022/06/02 08:57:18;;;;;;;7.00;6.20;;;;;;;22.73;58.17;95066.91;5074405;28;20239;-73
2022/06/02 09:00:20;;;;;;;7.93;5.63;;;;;;;23.02;56.55;95070.75;5074436;28;20213;-73
2022/06/02 09:03:35;;;;;;;7.45;5.57;;;;;;;23.15;55.36;95070.09;5074470;28;20204;-73
2022/06/02 09:06:33;;;;;;;7.20;5.03;;;;;;;23.26;56.35;95063.00;5074089;28;20223;-73
2022/06/02 09:09:20;;;;;;;6.95;5.30;;;;;;;23.42;55.05;95070.69;5074444;28;20205;-73
2022/06/02 09:12:10;;;;;;;7.13;4.68;;;;;;;23.50;54.82;95068.50;5074710;28;20197;-73
2022/06/02 09:15:19;;;;;;;6.78;4.70;;;;;;;23.72;51.37;95066.03;5074730;28;20284;-73
2022/06/02 09:17:47;;;;;;;5.22;4.63;;;;;;;23.86;52.28;95071.31;5075268;28;20188;-73
2022/06/02 09:20:31;;;;;;;7.97;5.78;;;;;;;23.97;52.73;95059.78;5074245;28;20237;-73
2022/06/02 09:23:12;;;;;;;7.65;5.43;;;;;;;23.96;54.07;95061.00;5074447;28;20248;-73
2022/06/02 09:25:48;;;;;;;8.38;5.68;;;;;;;24.04;53.31;95059.59;5074191;28;20203;-73
2022/06/02 09:28:27;;;;;;;6.40;5.80;;;;;;;24.11;55.00;95062.25;5075316;28;20197;-73
2022/06/02 09:31:04;;;;;;;7.85;6.25;;;;;;;24.20;53.65;95058.78;5074455;28;20189;-73
2022/06/02 09:33:57;;;;;;;5.78;5.28;;;;;;;24.24;53.73;95053.84;5075017;28;20241;-73
2022/06/02 09:36:42;;;;;;;6.35;5.75;;;;;;;24.44;54.09;95054.56;5074413;28;20193;-73
2022/06/02 09:39:21;;;;;;;7.07;5.40;;;;;;;24.44;51.51;95057.38;5074364;28;20209;-73
2022/06/02 09:42:21;;;;;;;6.80;5.47;;;;;;;24.49;54.82;95051.19;5075046;28;20204;-73
2022/06/02 09:44:56;;;;;;;7.72;5.60;;;;;;;24.64;51.47;95039.53;5075113;28;20192;-73
2022/06/02 09:47:43;;;;;;;5.93;4.93;;;;;;;24.77;49.54;95042.41;5074996;28;20180;-73
2022/06/02 09:50:20;;;;;;;6.72;5.22;;;;;;;24.97;51.59;95048.66;5074452;28;20278;-73
2022/06/02 09:53:11;;;;;;;6.80;4.53;;;;;;;25.04;48.58;95036.38;5073988;28;20211;-73
2022/06/02 09:55:39;;;;;;;7.60;4.93;;;;;;;25.11;47.06;95041.84;5074946;28;20239;-73
2022/06/02 09:58:17;;;;;;;6.40;4.88;;;;;;;25.13;48.32;95037.34;5074918;28;20186;-73
2022/06/02 10:00:57;;;;;;;6.03;3.58;;;;;;;25.32;43.93;95035.53;5074923;28;20205;-73
2022/06/02 10:03:53;;;;;;;3.95;3.38;;;;;;;25.40;43.65;95036.13;5073647;28;20243;-73
2022/06/02 10:06:45;;;;;;;4.38;3.45;;;;;;;25.42;43.35;95036.47;5067119;28;20276;-73
2022/06/02 10:09:23;;;;;;;6.88;3.30;;;;;;;25.55;42.75;95040.06;5074664;28;20194;-73
2022/06/02 10:12:54;;;;;;;3.92;2.72;;;;;;;25.68;36.76;95034.44;5074447;28;20196;-73
2022/06/02 10:15:10;;;;;;;5.65;2.80;;;;;;;25.65;39.29;95030.47;5074229;28;20215;-73
2022/06/02 10:18:14;;;;;;;5.80;2.55;;;;;;;25.82;34.79;95033.22;5076754;28;20221;-73
2022/06/02 10:20:56;;;;;;;4.65;2.38;;;;;;;25.82;34.92;95036.03;5042572;28;20236;-73
2022/06/02 10:23:49;;;;;;;5.30;2.95;;;;;;;25.82;35.34;95033.22;5077834;28;20236;-73
2022/06/02 10:26:27;;;;;;;3.88;2.50;;;;;;;25.65;34.25;95030.47;5078314;28;20235;-73
2022/06/02 10:29:26;;;;;;;4.90;2.55;;;;;;;25.58;36.54;95027.09;5077489;28;20254;-73
2022/06/02 10:32:25;;;;;;;5.10;2.72;;;;;;;25.64;36.42;95026.06;5034621;28;20225;-73
2022/06/02 10:35:16;;;;;;;3.60;3.00;;;;;;;25.89;39.40;95021.66;5047318;28;20641;-73
2022/06/02 10:38:06;;;;;;;4.57;3.00;;;;;;;26.06;37.29;95014.63;5078077;28;20221;-73
2022/06/02 10:40:46;;;;;;;4.28;2.90;;;;;;;26.14;35.58;95013.16;5077106;28;20270;-73
2022/06/02 10:43:27;;;;;;;3.65;2.80;;;;;;;26.14;37.21;95010.31;5077023;28;20201;-73
2022/06/02 10:46:23;;;;;;;5.90;2.83;;;;;;;26.23;37.61;95000.34;5077840;28;20185;-73
2022/06/02 10:49:02;;;;;;;3.72;3.15;;;;;;;26.37;36.88;94991.38;5077239;28;20205;-73
2022/06/02 10:52:08;;;;;;;7.90;3.42;;;;;;;26.47;35.73;94997.91;5077536;28;20224;-74
2022/06/02 10:55:12;;;;;;;5.07;2.90;;;;;;;26.63;39.76;94986.41;5053832;28;20567;-74
2022/06/02 10:57:57;;;;;;;4.18;2.58;;;;;;;26.73;36.93;94982.41;5076569;28;20207;-74
2022/06/02 11:00:49;;;;;;;5.43;2.72;;;;;;;26.78;37.42;94981.03;5077534;28;20212;-74
2022/06/02 11:03:51;;;;;;;3.95;2.70;;;;;;;26.68;36.65;94973.72;5076804;28;20201;-74
2022/06/02 11:06:57;;;;;;;3.92;3.40;;;;;;;26.62;36.83;94979.97;5027739;28;20293;-74
2022/06/02 11:10:10;;;;;;;5.68;3.30;;;;;;;26.62;35.61;94976.38;5077237;28;20238;-74
2022/06/02 11:13:16;;;;;;;5.50;3.20;;;;;;;26.95;36.00;94978.78;4980106;28;20211;-74
2022/06/02 11:16:09;;;;;;;3.60;2.78;;;;;;;26.99;36.87;94977.38;5011623;28;20294;-74
2022/06/02 11:18:53;;;;;;;5.28;2.92;;;;;;;27.03;36.29;94971.59;5077262;28;20667;-73
2022/06/02 11:21:41;;;;;;;5.28;2.83;;;;;;;26.89;36.83;94981.41;5076044;28;20220;-73
2022/06/02 11:24:36;;;;;;;3.55;2.80;;;;;;;26.94;37.65;94974.34;5075889;28;20594;-73
2022/06/02 11:27:37;;;;;;;4.07;3.33;;;;;;;27.05;38.08;94978.38;5077288;28;20189;-73
2022/06/02 11:30:14;;;;;;;3.95;3.40;;;;;;;27.15;39.86;94972.78;5076857;28;20205;-73
2022/06/02 11:33:13;;;;;;;3.50;3.13;;;;;;;27.27;39.89;94978.38;5076275;28;20200;-73
2022/06/02 11:36:11;;;;;;;3.90;2.85;;;;;;;27.17;38.94;94970.28;5076816;28;20221;-73
2022/06/02 11:39:19;;;;;;;3.88;3.30;;;;;;;27.23;41.35;94966.38;5055568;28;20599;-73
2022/06/02 11:41:50;;;;;;;4.18;3.40;;;;;;;27.32;40.66;94968.47;5063416;28;20299;-73
2022/06/02 11:44:32;;;;;;;3.85;3.50;;;;;;;27.33;37.79;94973.66;5076955;28;20186;-73
2022/06/02 11:47:23;;;;;;;3.88;3.15;;;;;;;27.28;40.45;94962.16;5075936;28;20189;-73
2022/06/02 11:50:22;;;;;;;5.90;3.50;;;;;;;27.42;39.94;94963.66;5076173;28;20189;-73
2022/06/02 11:53:14;;;;;;;3.50;3.20;;;;;;;27.39;41.11;94967.41;5076894;28;20572;-73
2022/06/02 11:55:44;;;;;;;4.80;3.55;;;;;;;27.40;39.58;94949.16;5076742;28;20251;-73
2022/06/02 11:58:50;;;;;;;3.63;3.33;;;;;;;27.18;38.70;94949.22;5076891;28;20246;-73
2022/06/02 12:01:42;;;;;;;4.53;4.13;;;;;;;27.03;40.17;94957.44;5075612;28;20305;-73
2022/06/02 12:04:33;;;;;;;4.47;3.50;;;;;;;27.11;40.91;94948.22;5076043;28;20265;-73
2022/06/02 12:07:15;;;;;;;7.47;3.78;;;;;;;27.23;40.85;94954.25;5076505;28;20200;-73
2022/06/02 12:10:22;;;;;;;5.95;3.20;;;;;;;27.28;40.91;94945.16;5076758;28;20182;-73
2022/06/02 12:13:10;;;;;;;3.60;3.22;;;;;;;27.39;41.89;94948.38;5076259;28;20185;-73
2022/06/02 12:16:07;;;;;;;5.35;3.55;;;;;;;27.44;41.76;94950.56;5075338;28;20185;-73
2022/06/02 12:18:42;;;;;;;3.55;3.03;;;;;;;27.46;37.48;94944.47;5070861;28;20201;-73
2022/06/02 12:21:28;;;;;;;3.60;3.15;;;;;;;27.33;39.19;94942.50;5075106;28;20208;-73
2022/06/02 12:24:27;;;;;;;4.45;3.33;;;;;;;27.19;40.28;94945.91;5075797;28;20241;-73
2022/06/02 12:27:12;;;;;;;3.58;3.28;;;;;;;27.02;42.08;94947.38;5075086;28;20193;-73
2022/06/02 12:29:58;;;;;;;4.28;3.65;;;;;;;26.79;41.57;94943.78;5075095;28;20197;-73
2022/06/02 12:32:44;;;;;;;4.50;3.15;;;;;;;26.61;41.31;94950.09;5075298;28;20196;-73
2022/06/02 12:35:35;;;;;;;5.03;3.92;;;;;;;26.47;40.90;94953.47;5074939;28;20205;-73
2022/06/02 12:38:23;;;;;;;4.80;3.75;;;;;;;26.33;39.92;94956.78;5075861;28;20193;-73
2022/06/02 12:41:08;;;;;;;4.68;3.70;;;;;;;26.21;41.52;94949.13;5075163;28;20238;-73
2022/06/02 12:44:13;;;;;;;3.85;3.28;;;;;;;26.13;41.78;94954.25;5074800;28;20197;-73
2022/06/02 12:46:58;;;;;;;4.60;4.10;;;;;;;26.05;41.61;94955.75;5029269;28;20216;-73
2022/06/02 12:49:56;;;;;;;5.00;3.63;;;;;;;25.99;42.95;94951.91;5074325;28;20205;-73